sensor_id;sensor_type;location;lat;lon;timestamp;P1;durP1;ratioP1;P2;durP2;ratioP2
21754;SDS011;11039;50.028;19.938;2023-03-03T00:00:10;5.13;;;3.80;;
21754;SDS011;11039;50.028;19.938;2023-03-03T00:02:36;4.28;;;3.33;;
21754;SDS011;11039;50.028;19.938;2023-03-03T00:05:02;5.32;;;3.75;;
21754;SDS011;11039;50.028;19.938;2023-03-03T00:07:29;5.68;;;3.78;;
21754;SDS011;11039;50.028;19.938;2023-03-03T00:09:55;4.97;;;3.60;;
21754;SDS011;11039;50.028;19.938;2023-03-03T00:12:25;5.68;;;3.80;;
21754;SDS011;11039;50.028;19.938;2023-03-03T00:14:51;5.43;;;4.03;;
21754;SDS011;11039;50.028;19.938;2023-03-03T00:17:22;5.47;;;4.03;;
21754;SDS011;11039;50.028;19.938;2023-03-03T00:19:48;5.03;;;3.78;;
21754;SDS011;11039;50.028;19.938;2023-03-03T00:22:36;5.40;;;3.88;;
21754;SDS011;11039;50.028;19.938;2023-03-03T00:25:19;5.88;;;3.88;;
21754;SDS011;11039;50.028;19.938;2023-03-03T00:27:47;4.93;;;3.75;;
21754;SDS011;11039;50.028;19.938;2023-03-03T00:30:19;5.15;;;3.80;;
21754;SDS011;11039;50.028;19.938;2023-03-03T00:32:49;4.90;;;3.30;;
21754;SDS011;11039;50.028;19.938;2023-03-03T00:37:46;4.75;;;3.60;;
21754;SDS011;11039;50.028;19.938;2023-03-03T00:42:39;5.03;;;3.75;;
21754;SDS011;11039;50.028;19.938;2023-03-03T00:45:21;5.53;;;3.75;;
21754;SDS011;11039;50.028;19.938;2023-03-03T00:47:49;5.50;;;3.85;;
21754;SDS011;11039;50.028;19.938;2023-03-03T00:50:17;5.25;;;4.10;;
21754;SDS011;11039;50.028;19.938;2023-03-03T00:53:05;5.28;;;4.18;;
21754;SDS011;11039;50.028;19.938;2023-03-03T00:55:31;7.13;;;4.18;;
21754;SDS011;11039;50.028;19.938;2023-03-03T00:57:58;5.60;;;3.95;;
21754;SDS011;11039;50.028;19.938;2023-03-03T01:00:24;5.22;;;4.03;;
21754;SDS011;11039;50.028;19.938;2023-03-03T01:02:50;5.65;;;4.15;;
21754;SDS011;11039;50.028;19.938;2023-03-03T01:05:17;5.75;;;4.40;;
21754;SDS011;11039;50.028;19.938;2023-03-03T01:07:43;4.78;;;3.60;;
21754;SDS011;11039;50.028;19.938;2023-03-03T01:10:09;5.40;;;4.15;;
21754;SDS011;11039;50.028;19.938;2023-03-03T01:12:36;6.07;;;4.18;;
21754;SDS011;11039;50.028;19.938;2023-03-03T01:15:03;5.80;;;4.35;;
21754;SDS011;11039;50.028;19.938;2023-03-03T01:17:30;5.85;;;4.40;;
21754;SDS011;11039;50.028;19.938;2023-03-03T01:19:56;5.80;;;4.00;;
21754;SDS011;11039;50.028;19.938;2023-03-03T01:22:22;5.95;;;4.13;;
21754;SDS011;11039;50.028;19.938;2023-03-03T01:24:48;5.82;;;3.95;;
21754;SDS011;11039;50.028;19.938;2023-03-03T01:27:14;5.90;;;4.40;;
21754;SDS011;11039;50.028;19.938;2023-03-03T01:29:40;7.78;;;4.07;;
21754;SDS011;11039;50.028;19.938;2023-03-03T01:32:06;4.90;;;3.83;;
21754;SDS011;11039;50.028;19.938;2023-03-03T01:34:32;5.38;;;4.13;;
21754;SDS011;11039;50.028;19.938;2023-03-03T01:36:58;5.60;;;4.38;;
21754;SDS011;11039;50.028;19.938;2023-03-03T01:39:25;5.70;;;4.18;;
21754;SDS011;11039;50.028;19.938;2023-03-03T01:41:51;5.47;;;4.10;;
21754;SDS011;11039;50.028;19.938;2023-03-03T01:44:17;6.13;;;4.50;;
21754;SDS011;11039;50.028;19.938;2023-03-03T01:46:45;5.22;;;4.20;;
21754;SDS011;11039;50.028;19.938;2023-03-03T01:49:18;5.13;;;4.05;;
21754;SDS011;11039;50.028;19.938;2023-03-03T01:51:53;5.45;;;4.38;;
21754;SDS011;11039;50.028;19.938;2023-03-03T01:54:21;6.30;;;4.70;;
21754;SDS011;11039;50.028;19.938;2023-03-03T01:56:50;7.18;;;5.13;;
21754;SDS011;11039;50.028;19.938;2023-03-03T01:59:20;6.30;;;4.35;;
21754;SDS011;11039;50.028;19.938;2023-03-03T02:01:47;6.10;;;4.57;;
21754;SDS011;11039;50.028;19.938;2023-03-03T02:04:14;5.75;;;4.55;;
21754;SDS011;11039;50.028;19.938;2023-03-03T02:06:41;6.13;;;4.78;;
21754;SDS011;11039;50.028;19.938;2023-03-03T02:11:37;6.55;;;5.00;;
21754;SDS011;11039;50.028;19.938;2023-03-03T02:14:05;6.00;;;4.38;;
21754;SDS011;11039;50.028;19.938;2023-03-03T02:16:31;6.20;;;4.70;;
21754;SDS011;11039;50.028;19.938;2023-03-03T02:18:57;6.40;;;5.07;;
21754;SDS011;11039;50.028;19.938;2023-03-03T02:21:24;6.20;;;4.53;;
21754;SDS011;11039;50.028;19.938;2023-03-03T02:24:04;6.18;;;4.68;;
21754;SDS011;11039;50.028;19.938;2023-03-03T02:26:33;6.28;;;5.00;;
21754;SDS011;11039;50.028;19.938;2023-03-03T02:29:00;6.05;;;4.78;;
21754;SDS011;11039;50.028;19.938;2023-03-03T02:31:27;7.05;;;4.90;;
21754;SDS011;11039;50.028;19.938;2023-03-03T02:33:54;5.72;;;4.57;;
21754;SDS011;11039;50.028;19.938;2023-03-03T02:36:24;6.95;;;5.03;;
21754;SDS011;11039;50.028;19.938;2023-03-03T02:44:03;6.22;;;5.05;;
21754;SDS011;11039;50.028;19.938;2023-03-03T02:46:32;6.25;;;4.85;;
21754;SDS011;11039;50.028;19.938;2023-03-03T02:48:58;6.45;;;4.93;;
21754;SDS011;11039;50.028;19.938;2023-03-03T02:51:24;6.50;;;4.82;;
21754;SDS011;11039;50.028;19.938;2023-03-03T02:53:50;6.30;;;5.00;;
21754;SDS011;11039;50.028;19.938;2023-03-03T02:56:16;6.88;;;4.72;;
21754;SDS011;11039;50.028;19.938;2023-03-03T02:58:42;6.20;;;4.65;;
21754;SDS011;11039;50.028;19.938;2023-03-03T03:01:09;6.35;;;5.00;;
21754;SDS011;11039;50.028;19.938;2023-03-03T03:03:35;6.18;;;4.80;;
21754;SDS011;11039;50.028;19.938;2023-03-03T03:06:01;6.95;;;5.10;;
21754;SDS011;11039;50.028;19.938;2023-03-03T03:08:27;7.57;;;4.95;;
21754;SDS011;11039;50.028;19.938;2023-03-03T03:10:53;6.63;;;5.13;;
21754;SDS011;11039;50.028;19.938;2023-03-03T03:13:21;6.82;;;5.07;;
21754;SDS011;11039;50.028;19.938;2023-03-03T03:15:47;7.15;;;4.95;;
21754;SDS011;11039;50.028;19.938;2023-03-03T03:18:13;6.47;;;4.78;;
21754;SDS011;11039;50.028;19.938;2023-03-03T03:20:40;6.95;;;5.20;;
21754;SDS011;11039;50.028;19.938;2023-03-03T03:23:06;6.68;;;5.45;;
21754;SDS011;11039;50.028;19.938;2023-03-03T03:25:32;7.15;;;4.95;;
21754;SDS011;11039;50.028;19.938;2023-03-03T03:27:58;7.05;;;5.10;;
21754;SDS011;11039;50.028;19.938;2023-03-03T03:30:25;6.43;;;4.82;;
21754;SDS011;11039;50.028;19.938;2023-03-03T03:32:51;6.68;;;5.03;;
21754;SDS011;11039;50.028;19.938;2023-03-03T03:35:17;6.53;;;5.22;;
21754;SDS011;11039;50.028;19.938;2023-03-03T03:37:43;5.97;;;4.68;;
21754;SDS011;11039;50.028;19.938;2023-03-03T03:40:09;6.45;;;4.90;;
21754;SDS011;11039;50.028;19.938;2023-03-03T03:42:36;7.03;;;5.25;;
21754;SDS011;11039;50.028;19.938;2023-03-03T03:45:03;6.80;;;4.75;;
21754;SDS011;11039;50.028;19.938;2023-03-03T03:47:29;7.40;;;5.00;;
21754;SDS011;11039;50.028;19.938;2023-03-03T03:49:55;6.45;;;5.35;;
21754;SDS011;11039;50.028;19.938;2023-03-03T03:52:21;7.25;;;5.20;;
21754;SDS011;11039;50.028;19.938;2023-03-03T03:54:48;7.38;;;5.50;;
21754;SDS011;11039;50.028;19.938;2023-03-03T03:57:14;6.72;;;4.72;;
21754;SDS011;11039;50.028;19.938;2023-03-03T03:59:40;7.65;;;5.30;;
21754;SDS011;11039;50.028;19.938;2023-03-03T04:02:06;6.55;;;5.32;;
21754;SDS011;11039;50.028;19.938;2023-03-03T04:04:32;7.60;;;5.35;;
21754;SDS011;11039;50.028;19.938;2023-03-03T04:06:58;7.28;;;5.32;;
21754;SDS011;11039;50.028;19.938;2023-03-03T04:09:24;6.80;;;5.05;;
21754;SDS011;11039;50.028;19.938;2023-03-03T04:11:52;6.90;;;5.00;;
21754;SDS011;11039;50.028;19.938;2023-03-03T04:14:18;6.93;;;5.50;;
21754;SDS011;11039;50.028;19.938;2023-03-03T04:16:44;7.47;;;5.35;;
21754;SDS011;11039;50.028;19.938;2023-03-03T04:19:10;7.53;;;5.30;;
21754;SDS011;11039;50.028;19.938;2023-03-03T04:21:36;6.28;;;4.95;;
21754;SDS011;11039;50.028;19.938;2023-03-03T04:24:03;6.95;;;5.57;;
21754;SDS011;11039;50.028;19.938;2023-03-03T04:26:30;7.30;;;5.45;;
21754;SDS011;11039;50.028;19.938;2023-03-03T04:28:56;7.13;;;5.07;;
21754;SDS011;11039;50.028;19.938;2023-03-03T04:31:23;6.55;;;4.90;;
21754;SDS011;11039;50.028;19.938;2023-03-03T04:33:49;7.85;;;5.40;;
21754;SDS011;11039;50.028;19.938;2023-03-03T04:36:16;7.30;;;5.25;;
21754;SDS011;11039;50.028;19.938;2023-03-03T04:38:42;8.45;;;5.53;;
21754;SDS011;11039;50.028;19.938;2023-03-03T04:41:08;7.35;;;5.70;;
21754;SDS011;11039;50.028;19.938;2023-03-03T04:43:34;7.57;;;5.28;;
21754;SDS011;11039;50.028;19.938;2023-03-03T04:46:00;7.43;;;5.55;;
21754;SDS011;11039;50.028;19.938;2023-03-03T04:48:27;7.65;;;5.68;;
21754;SDS011;11039;50.028;19.938;2023-03-03T04:50:53;6.53;;;5.18;;
21754;SDS011;11039;50.028;19.938;2023-03-03T04:53:19;6.97;;;5.47;;
21754;SDS011;11039;50.028;19.938;2023-03-03T04:55:45;7.30;;;5.60;;
21754;SDS011;11039;50.028;19.938;2023-03-03T04:58:11;6.35;;;5.00;;
21754;SDS011;11039;50.028;19.938;2023-03-03T05:00:37;6.65;;;5.18;;
21754;SDS011;11039;50.028;19.938;2023-03-03T05:03:03;7.82;;;5.78;;
21754;SDS011;11039;50.028;19.938;2023-03-03T05:05:29;6.75;;;5.50;;
21754;SDS011;11039;50.028;19.938;2023-03-03T05:07:55;7.35;;;5.47;;
21754;SDS011;11039;50.028;19.938;2023-03-03T05:10:21;7.35;;;5.45;;
21754;SDS011;11039;50.028;19.938;2023-03-03T05:12:47;6.15;;;5.35;;
21754;SDS011;11039;50.028;19.938;2023-03-03T05:15:14;6.65;;;5.03;;
21754;SDS011;11039;50.028;19.938;2023-03-03T05:17:40;7.13;;;5.63;;
21754;SDS011;11039;50.028;19.938;2023-03-03T05:20:06;6.88;;;5.50;;
21754;SDS011;11039;50.028;19.938;2023-03-03T05:22:34;7.50;;;5.50;;
21754;SDS011;11039;50.028;19.938;2023-03-03T05:25:00;7.63;;;5.80;;
21754;SDS011;11039;50.028;19.938;2023-03-03T05:27:26;7.75;;;5.80;;
21754;SDS011;11039;50.028;19.938;2023-03-03T05:29:52;7.63;;;5.97;;
21754;SDS011;11039;50.028;19.938;2023-03-03T05:32:18;8.60;;;6.13;;
21754;SDS011;11039;50.028;19.938;2023-03-03T05:34:44;7.47;;;5.40;;
21754;SDS011;11039;50.028;19.938;2023-03-03T05:37:10;8.25;;;5.78;;
21754;SDS011;11039;50.028;19.938;2023-03-03T05:39:36;7.60;;;5.85;;
21754;SDS011;11039;50.028;19.938;2023-03-03T05:42:02;7.40;;;5.07;;
21754;SDS011;11039;50.028;19.938;2023-03-03T05:44:28;6.70;;;5.15;;
21754;SDS011;11039;50.028;19.938;2023-03-03T05:46:55;6.80;;;5.70;;
21754;SDS011;11039;50.028;19.938;2023-03-03T05:49:21;6.78;;;5.40;;
21754;SDS011;11039;50.028;19.938;2023-03-03T05:51:47;6.80;;;5.38;;
21754;SDS011;11039;50.028;19.938;2023-03-03T05:54:13;7.57;;;5.63;;
21754;SDS011;11039;50.028;19.938;2023-03-03T05:56:39;7.97;;;5.78;;
21754;SDS011;11039;50.028;19.938;2023-03-03T05:59:05;7.10;;;5.30;;
21754;SDS011;11039;50.028;19.938;2023-03-03T06:01:31;7.55;;;5.85;;
21754;SDS011;11039;50.028;19.938;2023-03-03T06:03:58;7.20;;;5.72;;
21754;SDS011;11039;50.028;19.938;2023-03-03T06:06:24;7.95;;;6.00;;
21754;SDS011;11039;50.028;19.938;2023-03-03T06:08:50;7.32;;;5.30;;
21754;SDS011;11039;50.028;19.938;2023-03-03T06:11:17;8.02;;;5.88;;
21754;SDS011;11039;50.028;19.938;2023-03-03T06:13:43;7.63;;;5.80;;
21754;SDS011;11039;50.028;19.938;2023-03-03T06:16:10;7.68;;;6.20;;
21754;SDS011;11039;50.028;19.938;2023-03-03T06:18:36;7.78;;;6.10;;
21754;SDS011;11039;50.028;19.938;2023-03-03T06:21:02;8.30;;;6.00;;
21754;SDS011;11039;50.028;19.938;2023-03-03T06:23:28;8.05;;;5.82;;
21754;SDS011;11039;50.028;19.938;2023-03-03T06:25:54;7.22;;;5.57;;
21754;SDS011;11039;50.028;19.938;2023-03-03T06:28:20;8.07;;;6.10;;
21754;SDS011;11039;50.028;19.938;2023-03-03T06:30:47;8.20;;;6.00;;
21754;SDS011;11039;50.028;19.938;2023-03-03T06:33:13;8.82;;;6.40;;
21754;SDS011;11039;50.028;19.938;2023-03-03T06:35:39;8.02;;;6.07;;
21754;SDS011;11039;50.028;19.938;2023-03-03T06:38:05;7.65;;;6.22;;
21754;SDS011;11039;50.028;19.938;2023-03-03T06:40:31;8.55;;;6.18;;
21754;SDS011;11039;50.028;19.938;2023-03-03T06:42:57;8.77;;;5.90;;
21754;SDS011;11039;50.028;19.938;2023-03-03T06:45:23;8.45;;;6.38;;
21754;SDS011;11039;50.028;19.938;2023-03-03T06:47:49;9.73;;;6.78;;
21754;SDS011;11039;50.028;19.938;2023-03-03T06:50:16;10.02;;;6.80;;
21754;SDS011;11039;50.028;19.938;2023-03-03T06:52:43;8.73;;;6.40;;
21754;SDS011;11039;50.028;19.938;2023-03-03T06:55:11;8.95;;;6.93;;
21754;SDS011;11039;50.028;19.938;2023-03-03T06:57:37;11.50;;;7.07;;
21754;SDS011;11039;50.028;19.938;2023-03-03T07:00:13;10.07;;;7.72;;
21754;SDS011;11039;50.028;19.938;2023-03-03T07:02:40;9.43;;;6.68;;
21754;SDS011;11039;50.028;19.938;2023-03-03T07:05:10;9.77;;;7.07;;
21754;SDS011;11039;50.028;19.938;2023-03-03T07:07:38;13.50;;;8.45;;
21754;SDS011;11039;50.028;19.938;2023-03-03T07:10:06;12.65;;;7.53;;
21754;SDS011;11039;50.028;19.938;2023-03-03T07:12:32;10.70;;;7.85;;
21754;SDS011;11039;50.028;19.938;2023-03-03T07:17:26;10.57;;;8.30;;
21754;SDS011;11039;50.028;19.938;2023-03-03T07:19:52;18.67;;;14.27;;
21754;SDS011;11039;50.028;19.938;2023-03-03T07:22:19;11.20;;;7.57;;
21754;SDS011;11039;50.028;19.938;2023-03-03T07:24:56;10.77;;;7.80;;
21754;SDS011;11039;50.028;19.938;2023-03-03T07:27:29;11.13;;;7.95;;
21754;SDS011;11039;50.028;19.938;2023-03-03T07:32:44;9.55;;;7.65;;
21754;SDS011;11039;50.028;19.938;2023-03-03T07:37:51;10.27;;;7.43;;
21754;SDS011;11039;50.028;19.938;2023-03-03T07:40:34;9.95;;;7.15;;
21754;SDS011;11039;50.028;19.938;2023-03-03T07:43:01;10.05;;;7.90;;
21754;SDS011;11039;50.028;19.938;2023-03-03T07:45:39;10.00;;;7.50;;
21754;SDS011;11039;50.028;19.938;2023-03-03T07:48:14;11.88;;;7.65;;
21754;SDS011;11039;50.028;19.938;2023-03-03T07:50:43;9.57;;;7.15;;
21754;SDS011;11039;50.028;19.938;2023-03-03T07:53:11;10.90;;;7.75;;
21754;SDS011;11039;50.028;19.938;2023-03-03T07:55:40;9.02;;;6.72;;
21754;SDS011;11039;50.028;19.938;2023-03-03T08:01:26;9.25;;;6.63;;
21754;SDS011;11039;50.028;19.938;2023-03-03T08:03:25;10.55;;;7.20;;
21754;SDS011;11039;50.028;19.938;2023-03-03T08:05:51;10.57;;;6.25;;
21754;SDS011;11039;50.028;19.938;2023-03-03T08:10:48;7.88;;;6.30;;
21754;SDS011;11039;50.028;19.938;2023-03-03T08:15:48;9.07;;;6.97;;
21754;SDS011;11039;50.028;19.938;2023-03-03T08:18:18;8.70;;;6.63;;
21754;SDS011;11039;50.028;19.938;2023-03-03T08:20:49;9.00;;;7.20;;
21754;SDS011;11039;50.028;19.938;2023-03-03T08:23:16;8.13;;;6.68;;
21754;SDS011;11039;50.028;19.938;2023-03-03T08:25:42;10.35;;;6.93;;
21754;SDS011;11039;50.028;19.938;2023-03-03T08:28:08;8.40;;;6.90;;
21754;SDS011;11039;50.028;19.938;2023-03-03T08:30:35;8.20;;;6.50;;
21754;SDS011;11039;50.028;19.938;2023-03-03T08:33:01;6.75;;;6.05;;
21754;SDS011;11039;50.028;19.938;2023-03-03T08:35:27;8.38;;;6.70;;
21754;SDS011;11039;50.028;19.938;2023-03-03T08:37:53;8.05;;;6.13;;
21754;SDS011;11039;50.028;19.938;2023-03-03T08:40:19;8.13;;;6.57;;
21754;SDS011;11039;50.028;19.938;2023-03-03T08:42:45;9.38;;;7.03;;
21754;SDS011;11039;50.028;19.938;2023-03-03T08:45:11;9.25;;;7.28;;
21754;SDS011;11039;50.028;19.938;2023-03-03T08:47:37;9.05;;;7.05;;
21754;SDS011;11039;50.028;19.938;2023-03-03T08:50:04;8.35;;;6.78;;
21754;SDS011;11039;50.028;19.938;2023-03-03T08:52:30;8.63;;;6.60;;
21754;SDS011;11039;50.028;19.938;2023-03-03T08:54:56;8.38;;;6.47;;
21754;SDS011;11039;50.028;19.938;2023-03-03T08:57:22;7.57;;;6.18;;
21754;SDS011;11039;50.028;19.938;2023-03-03T08:59:48;8.90;;;6.50;;
21754;SDS011;11039;50.028;19.938;2023-03-03T09:02:14;8.73;;;6.88;;
21754;SDS011;11039;50.028;19.938;2023-03-03T09:04:41;8.18;;;6.30;;
21754;SDS011;11039;50.028;19.938;2023-03-03T09:07:07;8.73;;;6.85;;
21754;SDS011;11039;50.028;19.938;2023-03-03T09:09:33;8.55;;;7.07;;
21754;SDS011;11039;50.028;19.938;2023-03-03T09:12:05;8.38;;;6.22;;
21754;SDS011;11039;50.028;19.938;2023-03-03T09:14:38;8.80;;;6.80;;
21754;SDS011;11039;50.028;19.938;2023-03-03T09:17:07;8.10;;;6.68;;
21754;SDS011;11039;50.028;19.938;2023-03-03T09:19:43;7.82;;;6.30;;
21754;SDS011;11039;50.028;19.938;2023-03-03T09:22:28;9.05;;;6.88;;
21754;SDS011;11039;50.028;19.938;2023-03-03T09:24:56;8.93;;;7.05;;
21754;SDS011;11039;50.028;19.938;2023-03-03T09:27:29;8.00;;;6.45;;
21754;SDS011;11039;50.028;19.938;2023-03-03T09:32:40;9.90;;;7.00;;
21754;SDS011;11039;50.028;19.938;2023-03-03T09:35:26;8.80;;;6.97;;
21754;SDS011;11039;50.028;19.938;2023-03-03T09:38:00;9.07;;;7.10;;
21754;SDS011;11039;50.028;19.938;2023-03-03T09:43:03;8.27;;;6.50;;
21754;SDS011;11039;50.028;19.938;2023-03-03T09:50:33;8.52;;;6.40;;
21754;SDS011;11039;50.028;19.938;2023-03-03T09:55:31;8.70;;;6.60;;
21754;SDS011;11039;50.028;19.938;2023-03-03T09:58:03;8.32;;;6.07;;
21754;SDS011;11039;50.028;19.938;2023-03-03T10:06:30;8.02;;;6.03;;
21754;SDS011;11039;50.028;19.938;2023-03-03T10:24:31;8.48;;;6.05;;
21754;SDS011;11039;50.028;19.938;2023-03-03T10:50:43;8.35;;;6.65;;
21754;SDS011;11039;50.028;19.938;2023-03-03T10:55:45;9.20;;;6.78;;
21754;SDS011;11039;50.028;19.938;2023-03-03T11:00:58;7.35;;;6.18;;
21754;SDS011;11039;50.028;19.938;2023-03-03T11:08:29;10.65;;;6.88;;
21754;SDS011;11039;50.028;19.938;2023-03-03T11:11:13;9.63;;;6.20;;
21754;SDS011;11039;50.028;19.938;2023-03-03T11:13:45;9.63;;;6.80;;
21754;SDS011;11039;50.028;19.938;2023-03-03T11:31:41;9.35;;;6.43;;
21754;SDS011;11039;50.028;19.938;2023-03-03T11:34:21;9.48;;;7.07;;
21754;SDS011;11039;50.028;19.938;2023-03-03T11:36:56;8.68;;;6.65;;
21754;SDS011;11039;50.028;19.938;2023-03-03T11:39:26;9.25;;;7.15;;
21754;SDS011;11039;50.028;19.938;2023-03-03T11:42:41;9.27;;;6.95;;
21754;SDS011;11039;50.028;19.938;2023-03-03T11:44:48;8.73;;;6.90;;
21754;SDS011;11039;50.028;19.938;2023-03-03T11:47:18;9.40;;;6.82;;
21754;SDS011;11039;50.028;19.938;2023-03-03T11:50:03;9.50;;;7.30;;
21754;SDS011;11039;50.028;19.938;2023-03-03T11:52:33;9.38;;;6.95;;
21754;SDS011;11039;50.028;19.938;2023-03-03T11:57:38;10.25;;;7.72;;
21754;SDS011;11039;50.028;19.938;2023-03-03T12:00:23;10.40;;;7.78;;
21754;SDS011;11039;50.028;19.938;2023-03-03T12:10:52;10.13;;;8.52;;
21754;SDS011;11039;50.028;19.938;2023-03-03T12:16:03;11.02;;;8.55;;
21754;SDS011;11039;50.028;19.938;2023-03-03T12:18:43;12.13;;;9.18;;
21754;SDS011;11039;50.028;19.938;2023-03-03T12:22:01;11.68;;;9.18;;
21754;SDS011;11039;50.028;19.938;2023-03-03T12:34:43;9.35;;;7.38;;
21754;SDS011;11039;50.028;19.938;2023-03-03T12:40:08;8.63;;;6.93;;
21754;SDS011;11039;50.028;19.938;2023-03-03T12:42:37;9.45;;;6.68;;
21754;SDS011;11039;50.028;19.938;2023-03-03T12:47:54;8.73;;;6.75;;
21754;SDS011;11039;50.028;19.938;2023-03-03T12:50:26;8.93;;;6.68;;
21754;SDS011;11039;50.028;19.938;2023-03-03T12:53:06;8.07;;;6.22;;
21754;SDS011;11039;50.028;19.938;2023-03-03T13:02:59;6.82;;;5.53;;
21754;SDS011;11039;50.028;19.938;2023-03-03T13:05:32;7.60;;;6.18;;
21754;SDS011;11039;50.028;19.938;2023-03-03T13:10:51;7.70;;;5.88;;
21754;SDS011;11039;50.028;19.938;2023-03-03T13:14:03;7.93;;;5.95;;
21754;SDS011;11039;50.028;19.938;2023-03-03T13:16:10;7.80;;;5.88;;
21754;SDS011;11039;50.028;19.938;2023-03-03T13:21:08;10.00;;;6.03;;
21754;SDS011;11039;50.028;19.938;2023-03-03T13:31:18;7.05;;;5.63;;
21754;SDS011;11039;50.028;19.938;2023-03-03T13:33:55;6.85;;;4.90;;
21754;SDS011;11039;50.028;19.938;2023-03-03T13:36:24;8.07;;;5.50;;
21754;SDS011;11039;50.028;19.938;2023-03-03T13:38:52;7.63;;;5.57;;
21754;SDS011;11039;50.028;19.938;2023-03-03T13:43:45;5.45;;;4.22;;
21754;SDS011;11039;50.028;19.938;2023-03-03T13:46:19;6.95;;;5.13;;
21754;SDS011;11039;50.028;19.938;2023-03-03T13:51:27;7.78;;;5.93;;
21754;SDS011;11039;50.028;19.938;2023-03-03T13:59:09;6.78;;;5.40;;
21754;SDS011;11039;50.028;19.938;2023-03-03T14:06:54;9.25;;;6.03;;
21754;SDS011;11039;50.028;19.938;2023-03-03T14:12:07;7.28;;;5.60;;
21754;SDS011;11039;50.028;19.938;2023-03-03T14:17:03;7.10;;;5.82;;
21754;SDS011;11039;50.028;19.938;2023-03-03T14:19:33;7.20;;;5.47;;
21754;SDS011;11039;50.028;19.938;2023-03-03T14:22:17;7.15;;;5.63;;
21754;SDS011;11039;50.028;19.938;2023-03-03T14:25:30;7.68;;;5.18;;
21754;SDS011;11039;50.028;19.938;2023-03-03T14:33:30;7.30;;;5.38;;
21754;SDS011;11039;50.028;19.938;2023-03-03T14:35:38;6.43;;;4.97;;
21754;SDS011;11039;50.028;19.938;2023-03-03T14:40:34;7.28;;;5.82;;
21754;SDS011;11039;50.028;19.938;2023-03-03T14:43:03;6.90;;;5.25;;
21754;SDS011;11039;50.028;19.938;2023-03-03T14:45:33;8.77;;;6.55;;
21754;SDS011;11039;50.028;19.938;2023-03-03T14:48:15;15.27;;;10.00;;
21754;SDS011;11039;50.028;19.938;2023-03-03T14:50:52;14.85;;;10.32;;
21754;SDS011;11039;50.028;19.938;2023-03-03T14:55:48;12.68;;;8.75;;
21754;SDS011;11039;50.028;19.938;2023-03-03T15:06:28;7.30;;;5.60;;
21754;SDS011;11039;50.028;19.938;2023-03-03T15:08:55;6.53;;;5.20;;
21754;SDS011;11039;50.028;19.938;2023-03-03T15:11:29;8.93;;;5.53;;
21754;SDS011;11039;50.028;19.938;2023-03-03T15:14:31;6.93;;;4.97;;
21754;SDS011;11039;50.028;19.938;2023-03-03T15:16:50;6.65;;;4.72;;
21754;SDS011;11039;50.028;19.938;2023-03-03T15:21:52;5.25;;;4.07;;
21754;SDS011;11039;50.028;19.938;2023-03-03T15:24:25;8.10;;;4.70;;
21754;SDS011;11039;50.028;19.938;2023-03-03T15:29:24;6.07;;;4.25;;
21754;SDS011;11039;50.028;19.938;2023-03-03T15:37:41;5.53;;;4.10;;
21754;SDS011;11039;50.028;19.938;2023-03-03T15:40:27;6.18;;;4.28;;
21754;SDS011;11039;50.028;19.938;2023-03-03T15:43:18;6.22;;;4.40;;
21754;SDS011;11039;50.028;19.938;2023-03-03T15:56:19;5.18;;;3.95;;
21754;SDS011;11039;50.028;19.938;2023-03-03T16:01:24;4.30;;;3.58;;
21754;SDS011;11039;50.028;19.938;2023-03-03T16:06:21;5.05;;;3.70;;
21754;SDS011;11039;50.028;19.938;2023-03-03T16:11:31;4.40;;;3.55;;
21754;SDS011;11039;50.028;19.938;2023-03-03T16:16:46;5.38;;;3.72;;
21754;SDS011;11039;50.028;19.938;2023-03-03T16:22:02;4.75;;;3.83;;
21754;SDS011;11039;50.028;19.938;2023-03-03T16:27:08;6.78;;;3.80;;
21754;SDS011;11039;50.028;19.938;2023-03-03T16:42:31;4.78;;;3.90;;
21754;SDS011;11039;50.028;19.938;2023-03-03T16:55:35;5.50;;;3.78;;
21754;SDS011;11039;50.028;19.938;2023-03-03T17:00:36;4.85;;;4.00;;
21754;SDS011;11039;50.028;19.938;2023-03-03T17:42:27;4.75;;;3.38;;
21754;SDS011;11039;50.028;19.938;2023-03-03T18:02:54;4.38;;;3.40;;
21754;SDS011;11039;50.028;19.938;2023-03-03T18:05:57;4.50;;;3.55;;
21754;SDS011;11039;50.028;19.938;2023-03-03T18:13:30;4.35;;;3.22;;
21754;SDS011;11039;50.028;19.938;2023-03-03T18:37:55;4.25;;;3.15;;
21754;SDS011;11039;50.028;19.938;2023-03-03T18:40:29;4.20;;;3.30;;
21754;SDS011;11039;50.028;19.938;2023-03-03T18:42:56;3.95;;;3.00;;
21754;SDS011;11039;50.028;19.938;2023-03-03T18:53:23;4.05;;;3.03;;
21754;SDS011;11039;50.028;19.938;2023-03-03T19:00:51;3.72;;;3.17;;
21754;SDS011;11039;50.028;19.938;2023-03-03T19:03:30;4.32;;;3.17;;
21754;SDS011;11039;50.028;19.938;2023-03-03T19:05:58;4.10;;;3.33;;
21754;SDS011;11039;50.028;19.938;2023-03-03T19:08:26;4.82;;;3.67;;
21754;SDS011;11039;50.028;19.938;2023-03-03T19:10:54;4.40;;;3.35;;
21754;SDS011;11039;50.028;19.938;2023-03-03T19:16:09;4.43;;;3.28;;
21754;SDS011;11039;50.028;19.938;2023-03-03T19:29:03;6.03;;;3.30;;
21754;SDS011;11039;50.028;19.938;2023-03-03T19:34:10;4.68;;;3.30;;
21754;SDS011;11039;50.028;19.938;2023-03-03T19:36:48;3.83;;;3.20;;
21754;SDS011;11039;50.028;19.938;2023-03-03T19:47:25;3.40;;;2.78;;
21754;SDS011;11039;50.028;19.938;2023-03-03T19:52:31;3.92;;;3.28;;
21754;SDS011;11039;50.028;19.938;2023-03-03T19:57:49;3.90;;;2.88;;
21754;SDS011;11039;50.028;19.938;2023-03-03T20:08:02;4.20;;;3.00;;
21754;SDS011;11039;50.028;19.938;2023-03-03T20:23:25;10.45;;;8.77;;
21754;SDS011;11039;50.028;19.938;2023-03-03T20:26:14;18.77;;;14.63;;
21754;SDS011;11039;50.028;19.938;2023-03-03T20:51:45;8.90;;;6.82;;
21754;SDS011;11039;50.028;19.938;2023-03-03T20:57:02;8.88;;;6.07;;
21754;SDS011;11039;50.028;19.938;2023-03-03T20:59:33;7.20;;;5.10;;
21754;SDS011;11039;50.028;19.938;2023-03-03T21:04:34;6.95;;;4.53;;
21754;SDS011;11039;50.028;19.938;2023-03-03T21:07:01;5.68;;;4.20;;
21754;SDS011;11039;50.028;19.938;2023-03-03T21:09:31;5.13;;;3.85;;
21754;SDS011;11039;50.028;19.938;2023-03-03T21:11:59;4.53;;;3.53;;
21754;SDS011;11039;50.028;19.938;2023-03-03T21:14:29;5.07;;;3.95;;
21754;SDS011;11039;50.028;19.938;2023-03-03T21:16:56;5.05;;;3.53;;
21754;SDS011;11039;50.028;19.938;2023-03-03T21:21:52;5.00;;;3.63;;
21754;SDS011;11039;50.028;19.938;2023-03-03T21:24:18;4.68;;;3.20;;
21754;SDS011;11039;50.028;19.938;2023-03-03T21:29:21;3.97;;;3.03;;
21754;SDS011;11039;50.028;19.938;2023-03-03T21:31:54;3.63;;;2.95;;
21754;SDS011;11039;50.028;19.938;2023-03-03T21:34:22;4.50;;;3.42;;
21754;SDS011;11039;50.028;19.938;2023-03-03T21:36:48;4.68;;;3.00;;
21754;SDS011;11039;50.028;19.938;2023-03-03T21:39:34;3.95;;;2.95;;
21754;SDS011;11039;50.028;19.938;2023-03-03T21:42:05;4.22;;;3.17;;
21754;SDS011;11039;50.028;19.938;2023-03-03T21:44:39;4.63;;;3.30;;
21754;SDS011;11039;50.028;19.938;2023-03-03T21:47:06;4.53;;;3.05;;
21754;SDS011;11039;50.028;19.938;2023-03-03T21:49:33;3.50;;;2.67;;
21754;SDS011;11039;50.028;19.938;2023-03-03T21:51:59;3.60;;;2.78;;
21754;SDS011;11039;50.028;19.938;2023-03-03T21:54:26;3.97;;;2.85;;
21754;SDS011;11039;50.028;19.938;2023-03-03T21:56:52;3.67;;;2.80;;
21754;SDS011;11039;50.028;19.938;2023-03-03T21:59:18;3.70;;;2.88;;
21754;SDS011;11039;50.028;19.938;2023-03-03T22:01:45;3.58;;;2.72;;
21754;SDS011;11039;50.028;19.938;2023-03-03T22:04:11;3.72;;;3.03;;
21754;SDS011;11039;50.028;19.938;2023-03-03T22:06:37;3.72;;;2.85;;
21754;SDS011;11039;50.028;19.938;2023-03-03T22:09:04;3.90;;;2.72;;